createdAt,value
2019-01-12T00:03:51.809Z,41.00
2019-01-12T00:06:18.491Z,29.60
2019-01-12T00:11:12.029Z,27.10
2019-01-12T00:13:38.592Z,20.30
2019-01-12T00:16:05.011Z,19.40
2019-01-12T00:18:31.458Z,18.10
2019-01-12T00:20:57.966Z,19.20
2019-01-12T00:23:24.530Z,18.30
2019-01-12T00:25:51.037Z,18.60
2019-01-12T00:28:17.605Z,18.50
2019-01-12T00:30:44.107Z,18.20
2019-01-12T00:33:10.674Z,18.10
2019-01-12T00:35:37.310Z,18.00
2019-01-12T00:38:03.824Z,18.00
2019-01-12T00:40:30.272Z,17.80
2019-01-12T00:42:57.019Z,17.50
2019-01-12T00:45:23.528Z,17.50
2019-01-12T00:47:50.098Z,17.60
2019-01-12T00:50:16.937Z,17.40
2019-01-12T00:52:43.468Z,17.30
2019-01-12T00:55:09.979Z,17.60
2019-01-12T00:57:36.514Z,17.10
2019-01-12T01:00:03.050Z,17.50
2019-01-12T01:02:29.583Z,17.30
2019-01-12T01:04:56.119Z,17.30
2019-01-12T01:07:22.786Z,17.20
2019-01-12T01:09:49.428Z,17.10
2019-01-12T01:12:15.920Z,17.20
2019-01-12T01:14:42.373Z,17.20
2019-01-12T01:17:08.829Z,17.00
2019-01-12T01:19:35.437Z,17.00
2019-01-12T01:22:01.977Z,17.10
2019-01-12T01:24:28.637Z,17.00
2019-01-12T01:26:55.276Z,17.00
2019-01-12T01:29:21.713Z,16.70
2019-01-12T01:31:48.351Z,16.40
2019-01-12T01:34:14.961Z,16.50
2019-01-12T01:36:41.493Z,16.50
2019-01-12T01:39:08.027Z,16.30
2019-01-12T01:41:34.534Z,16.30
2019-01-12T01:44:01.100Z,16.00
2019-01-12T01:46:27.637Z,15.90
2019-01-12T01:48:54.198Z,15.80
2019-01-12T01:51:20.603Z,15.70
2019-01-12T01:53:47.267Z,15.60
2019-01-12T01:56:13.878Z,15.60
2019-01-12T01:58:40.419Z,15.70
2019-01-12T02:01:06.949Z,15.50
2019-01-12T02:03:33.614Z,15.50
2019-01-12T02:06:00.017Z,15.40
2019-01-12T02:08:26.550Z,15.40
2019-01-12T02:10:53.067Z,15.30
2019-01-12T02:13:19.760Z,15.30
2019-01-12T02:15:46.264Z,15.30
2019-01-12T02:18:12.851Z,15.20
2019-01-12T02:20:39.462Z,15.30
2019-01-12T02:23:06.103Z,15.20
2019-01-12T02:25:32.608Z,15.20
2019-01-12T02:27:59.174Z,15.30
2019-01-12T02:30:25.684Z,15.20
2019-01-12T02:32:52.247Z,15.20
2019-01-12T02:35:18.751Z,15.30
2019-01-12T02:37:45.287Z,15.10
2019-01-12T02:40:11.931Z,15.10
2019-01-12T02:42:38.591Z,15.00
2019-01-12T02:45:05.103Z,15.50
2019-01-12T02:47:31.638Z,15.00
2019-01-12T02:49:58.174Z,14.80
2019-01-12T02:52:24.700Z,14.70
2019-01-12T02:54:51.371Z,14.80
2019-01-12T02:57:17.776Z,14.80
2019-01-12T02:59:44.237Z,14.90
2019-01-12T03:02:10.851Z,14.60
2019-01-12T03:04:37.397Z,14.80
2019-01-12T03:07:03.948Z,14.60
2019-01-12T03:09:30.428Z,14.70
2019-01-12T03:11:57.019Z,14.50
2019-01-12T03:14:23.532Z,14.50
2019-01-12T03:16:50.089Z,14.40
2019-01-12T03:19:16.491Z,14.40
2019-01-12T03:21:44.540Z,14.30
2019-01-12T03:24:11.435Z,14.30
2019-01-12T03:26:38.076Z,14.30
2019-01-12T03:29:04.716Z,14.30
2019-01-12T03:31:31.221Z,14.30
2019-01-12T03:33:57.751Z,14.20
2019-01-12T03:36:24.291Z,14.20
2019-01-12T03:38:51.059Z,14.20
2019-01-12T03:41:17.701Z,14.10
2019-01-12T03:43:44.336Z,13.90
2019-01-12T03:46:10.849Z,14.00
2019-01-12T03:48:37.377Z,14.10
2019-01-12T03:51:04.081Z,14.00
2019-01-12T03:53:30.681Z,14.00
2019-01-12T03:55:57.189Z,13.90
2019-01-12T03:58:23.732Z,13.80
2019-01-12T04:00:50.264Z,13.70
2019-01-12T04:03:16.795Z,13.80
2019-01-12T04:05:43.266Z,13.70
2019-01-12T04:08:09.790Z,13.70
2019-01-12T04:10:36.295Z,13.70
2019-01-12T04:13:02.838Z,14.20
2019-01-12T04:15:29.399Z,13.60
2019-01-12T04:17:56.037Z,13.60
2019-01-12T04:20:22.476Z,13.50
2019-01-12T04:22:49.113Z,13.70
2019-01-12T04:25:15.653Z,13.60
2019-01-12T04:27:42.151Z,13.50
2019-01-12T04:30:08.818Z,13.40
2019-01-12T04:32:35.324Z,13.40
2019-01-12T04:35:01.859Z,13.40
2019-01-12T04:37:28.531Z,13.50
2019-01-12T04:39:55.161Z,13.50
2019-01-12T04:42:21.583Z,13.60
2019-01-12T04:44:48.106Z,13.30
2019-01-12T04:47:14.669Z,13.30
2019-01-12T04:49:41.082Z,13.30
2019-01-12T04:52:07.608Z,13.30
2019-01-12T04:54:34.173Z,13.30
2019-01-12T04:57:00.606Z,13.50
2019-01-12T04:59:27.248Z,13.40
2019-01-12T05:01:53.750Z,13.30
2019-01-12T05:04:20.287Z,13.10
2019-01-12T05:06:46.829Z,13.20
2019-01-12T05:09:13.363Z,13.10
2019-01-12T05:11:39.808Z,12.90
2019-01-12T05:14:06.458Z,12.90
2019-01-12T05:16:33.097Z,13.00
2019-01-12T05:18:59.734Z,13.00
2019-01-12T05:21:26.237Z,13.10
2019-01-12T05:23:52.773Z,12.90
2019-01-12T05:26:19.309Z,13.00
2019-01-12T05:28:45.814Z,12.90
2019-01-12T05:31:12.336Z,13.10
2019-01-12T05:33:38.945Z,12.90
2019-01-12T05:36:05.585Z,13.10
2019-01-12T05:38:32.092Z,13.00
2019-01-12T05:40:58.654Z,13.20
2019-01-12T05:43:25.118Z,13.30
2019-01-12T05:45:51.570Z,13.30
2019-01-12T05:48:18.159Z,13.10
2019-01-12T05:50:44.664Z,13.20
2019-01-12T05:53:11.195Z,13.10
2019-01-12T05:55:37.743Z,13.00
2019-01-12T05:58:04.265Z,13.00
2019-01-12T06:00:30.807Z,13.00
2019-01-12T06:02:57.250Z,13.20
2019-01-12T06:05:23.878Z,12.90
2019-01-12T06:07:50.330Z,12.90
2019-01-12T06:10:16.844Z,13.00
2019-01-12T06:12:43.434Z,12.90
2019-01-12T06:15:09.920Z,13.00
2019-01-12T06:17:36.585Z,12.90
2019-01-12T06:20:03.222Z,12.90
2019-01-12T06:22:29.730Z,13.00
2019-01-12T06:24:56.170Z,12.90
2019-01-12T06:27:22.726Z,12.90
2019-01-12T06:29:49.233Z,12.80
2019-01-12T06:32:15.687Z,12.80
2019-01-12T06:34:42.642Z,12.70
2019-01-12T06:37:09.276Z,12.70
2019-01-12T06:39:35.915Z,12.80
2019-01-12T06:42:02.525Z,12.90
2019-01-12T06:44:29.195Z,12.90
2019-01-12T06:46:55.701Z,12.80
2019-01-12T06:49:22.263Z,12.80
2019-01-12T06:51:48.770Z,12.90
2019-01-12T06:54:15.303Z,12.80
2019-01-12T06:56:41.844Z,12.70
2019-01-12T06:59:08.410Z,12.80
2019-01-12T07:01:34.916Z,12.80
2019-01-12T07:04:01.448Z,12.70
2019-01-12T07:06:27.984Z,12.80
2019-01-12T07:08:54.518Z,12.80
2019-01-12T07:11:21.060Z,12.80
2019-01-12T07:13:47.589Z,12.80
2019-01-12T07:16:14.262Z,12.70
2019-01-12T07:18:40.896Z,12.70
2019-01-12T07:21:07.534Z,12.70
2019-01-12T07:23:34.172Z,12.70
2019-01-12T07:26:00.680Z,12.80
2019-01-12T07:28:27.120Z,12.80
2019-01-12T07:30:53.589Z,12.80
2019-01-12T07:33:20.180Z,12.90
2019-01-12T07:35:46.746Z,12.70
2019-01-12T07:38:13.387Z,12.80
2019-01-12T07:40:40.024Z,12.80
2019-01-12T07:43:06.528Z,12.80
2019-01-12T07:45:33.093Z,12.80
2019-01-12T07:47:59.595Z,12.80
2019-01-12T07:50:26.041Z,12.80
2019-01-12T07:52:52.598Z,12.80
2019-01-12T07:55:19.106Z,12.90
2019-01-12T07:57:45.670Z,12.80
2019-01-12T08:00:12.184Z,12.80
2019-01-12T08:02:38.739Z,12.90
2019-01-12T08:05:06.782Z,12.90
2019-01-12T08:07:33.524Z,12.90
2019-01-12T08:10:00.249Z,12.80
2019-01-12T08:12:27.134Z,12.80
2019-01-12T08:14:53.641Z,12.80
2019-01-12T08:17:20.177Z,12.80
2019-01-12T08:19:46.745Z,12.80
2019-01-12T08:22:13.250Z,12.80
2019-01-12T08:24:39.771Z,12.80
2019-01-12T08:27:06.434Z,12.80
2019-01-12T08:29:32.959Z,12.80
2019-01-12T08:31:59.494Z,12.70
2019-01-12T08:34:26.028Z,12.80
2019-01-12T08:36:52.570Z,12.70
2019-01-12T08:39:19.334Z,12.70
2019-01-12T08:41:45.844Z,12.80
2019-01-12T08:44:12.401Z,12.80
2019-01-12T08:46:39.042Z,12.80
2019-01-12T08:49:05.684Z,12.80
2019-01-12T08:51:32.317Z,12.80
2019-01-12T08:53:58.962Z,12.70
2019-01-12T08:56:25.593Z,12.80
2019-01-12T08:58:52.232Z,12.80
2019-01-12T09:01:18.736Z,12.80
2019-01-12T09:03:45.271Z,12.80
2019-01-12T09:06:11.941Z,12.80
2019-01-12T09:08:38.419Z,12.80
2019-01-12T09:11:05.011Z,12.70
2019-01-12T09:13:31.425Z,12.60
2019-01-12T09:15:58.181Z,12.70
2019-01-12T09:18:24.691Z,12.80
2019-01-12T09:20:51.370Z,12.70
2019-01-12T09:23:17.861Z,12.70
2019-01-12T09:25:44.315Z,12.70
2019-01-12T09:28:10.833Z,12.70
2019-01-12T09:30:37.390Z,12.70
2019-01-12T09:33:03.844Z,12.80
2019-01-12T09:35:30.367Z,12.70
2019-01-12T09:37:57.007Z,12.80
2019-01-12T09:40:23.462Z,12.80
2019-01-12T09:42:50.075Z,12.70
2019-01-12T09:45:16.714Z,12.70
2019-01-12T09:47:43.219Z,12.80
2019-01-12T09:50:09.757Z,12.80
2019-01-12T09:52:36.293Z,12.70
2019-01-12T09:55:02.825Z,12.70
2019-01-12T09:57:29.496Z,12.70
2019-01-12T09:59:56.205Z,12.70
2019-01-12T10:02:22.976Z,12.70
2019-01-12T10:04:49.532Z,12.70
2019-01-12T10:07:16.046Z,12.70
2019-01-12T10:09:42.563Z,12.80
2019-01-12T10:12:09.091Z,12.70
2019-01-12T10:14:35.626Z,12.80
2019-01-12T10:17:02.200Z,12.60
2019-01-12T10:19:28.799Z,12.60
2019-01-12T10:21:55.535Z,12.60
2019-01-12T10:24:22.102Z,12.60
2019-01-12T10:26:48.740Z,12.60
2019-01-12T10:29:15.377Z,12.60
2019-01-12T10:31:41.811Z,12.60
2019-01-12T10:34:08.450Z,12.70
2019-01-12T10:36:34.957Z,12.60
2019-01-12T10:39:01.487Z,12.60
2019-01-12T10:41:28.030Z,12.70
2019-01-12T10:43:54.561Z,12.50
2019-01-12T10:46:21.094Z,12.60
2019-01-12T10:48:47.663Z,12.60
2019-01-12T10:51:14.299Z,12.50
2019-01-12T10:53:40.940Z,12.60
2019-01-12T10:56:07.355Z,12.50
2019-01-12T10:58:34.258Z,12.30
2019-01-12T11:01:00.852Z,12.50
2019-01-12T11:03:27.906Z,12.60
2019-01-12T11:05:54.538Z,12.50
2019-01-12T11:08:20.954Z,12.70
2019-01-12T11:10:48.018Z,12.70
2019-01-12T11:13:14.524Z,12.70
2019-01-12T11:15:41.091Z,12.70
2019-01-12T11:18:07.598Z,12.60
2019-01-12T11:20:34.134Z,12.70
2019-01-12T11:23:00.799Z,12.70
2019-01-12T11:25:27.314Z,12.70
2019-01-12T11:27:53.963Z,12.70
2019-01-12T11:30:20.507Z,12.70
2019-01-12T11:32:47.011Z,12.70
2019-01-12T11:35:13.547Z,12.60
2019-01-12T11:37:40.217Z,12.60
2019-01-12T11:40:06.768Z,12.60
2019-01-12T11:42:33.272Z,12.50
2019-01-12T11:44:59.925Z,12.50
2019-01-12T11:47:26.437Z,12.50
2019-01-12T11:49:53.075Z,12.50
2019-01-12T11:52:19.522Z,12.40
2019-01-12T11:54:46.035Z,12.40
2019-01-12T11:57:18.964Z,12.40
2019-01-12T11:59:41.287Z,12.40
2019-01-12T12:02:07.895Z,12.40
2019-01-12T12:04:34.433Z,12.40
2019-01-12T12:07:01.102Z,12.40
2019-01-12T12:09:27.607Z,12.40
2019-01-12T12:11:54.551Z,12.40
2019-01-12T12:14:21.087Z,12.40
2019-01-12T12:16:47.664Z,12.40
2019-01-12T12:19:14.169Z,12.40
2019-01-12T12:21:41.211Z,12.40
2019-01-12T12:24:07.771Z,12.40
2019-01-12T12:26:34.409Z,12.30
2019-01-12T12:29:01.046Z,12.30
2019-01-12T12:31:27.685Z,12.40
2019-01-12T12:33:54.310Z,12.40
2019-01-12T12:36:20.833Z,12.50
2019-01-12T12:38:47.392Z,12.40
2019-01-12T12:41:14.238Z,12.30
2019-01-12T12:43:40.754Z,12.50
2019-01-12T12:46:07.306Z,12.40
2019-01-12T12:48:33.817Z,12.40
2019-01-12T12:51:00.348Z,12.30
2019-01-12T12:53:27.017Z,12.20
2019-01-12T12:55:53.625Z,12.20
2019-01-12T12:58:20.293Z,12.40
2019-01-12T13:00:46.801Z,12.30
2019-01-12T13:03:13.332Z,12.30
2019-01-12T13:05:40.001Z,12.30
2019-01-12T13:08:06.514Z,12.50
2019-01-12T13:10:33.352Z,12.30
2019-01-12T13:12:59.889Z,12.40
2019-01-12T13:15:26.422Z,12.60
2019-01-12T13:17:53.191Z,12.40
2019-01-12T13:20:20.686Z,12.60
2019-01-12T13:22:49.350Z,14.60
2019-01-12T13:25:15.639Z,13.10
2019-01-12T13:27:42.171Z,13.00
2019-01-12T13:30:08.812Z,13.00
2019-01-12T13:32:35.475Z,13.20
2019-01-12T13:35:01.988Z,13.20
2019-01-12T13:37:28.520Z,13.20
2019-01-12T13:39:55.186Z,13.20
2019-01-12T13:42:21.693Z,13.10
2019-01-12T13:44:48.231Z,12.50
2019-01-12T13:47:20.669Z,12.20
2019-01-12T13:49:42.938Z,12.00
2019-01-12T13:52:09.470Z,11.70
2019-01-12T13:54:36.031Z,11.40
2019-01-12T13:57:02.571Z,11.10
2019-01-12T13:59:29.082Z,10.90
2019-01-12T14:01:55.746Z,11.60
2019-01-12T14:04:22.250Z,11.50
2019-01-12T14:06:48.788Z,11.20
2019-01-12T14:09:15.457Z,11.20
2019-01-12T14:11:41.879Z,11.10
2019-01-12T14:14:08.396Z,11.20
2019-01-12T14:16:34.931Z,10.90
2019-01-12T14:19:01.597Z,10.70
2019-01-12T14:21:28.111Z,10.80
2019-01-12T14:23:54.668Z,10.80
2019-01-12T14:26:21.177Z,11.40
2019-01-12T14:28:47.738Z,11.80
2019-01-12T14:31:14.376Z,11.90
2019-01-12T14:33:41.922Z,12.50
2019-01-12T14:36:08.445Z,12.20
2019-01-12T14:38:35.110Z,12.20
2019-01-12T14:41:01.824Z,12.20
2019-01-12T14:43:28.362Z,12.30
2019-01-12T14:45:54.876Z,13.50
2019-01-12T14:48:21.427Z,16.00
2019-01-12T14:50:47.969Z,16.80
2019-01-12T14:53:14.523Z,16.60
2019-01-12T14:55:41.044Z,15.90
2019-01-12T14:58:07.604Z,14.80
2019-01-12T15:00:34.655Z,15.30
2019-01-12T15:03:01.316Z,15.00
2019-01-12T15:05:27.939Z,14.50
2019-01-12T15:07:54.443Z,13.90
2019-01-12T15:10:20.971Z,15.10
2019-01-12T15:12:47.631Z,15.10
2019-01-12T15:15:14.550Z,13.40
2019-01-12T15:17:41.090Z,14.40
2019-01-12T15:20:07.629Z,13.60
2019-01-12T15:22:34.158Z,14.40
2019-01-12T15:25:00.695Z,13.70
2019-01-12T15:27:27.229Z,13.80
2019-01-12T15:29:53.869Z,13.20
2019-01-12T15:32:20.529Z,13.30
2019-01-12T15:34:47.167Z,14.50
2019-01-12T15:37:13.780Z,14.00
2019-01-12T15:39:40.229Z,13.20
2019-01-12T15:42:06.748Z,13.00
2019-01-12T15:44:33.310Z,13.10
2019-01-12T15:46:59.820Z,13.00
2019-01-12T15:49:26.379Z,13.00
2019-01-12T15:51:53.019Z,13.00
2019-01-12T15:54:19.452Z,13.60
2019-01-12T15:56:46.091Z,13.00
2019-01-12T15:59:12.616Z,13.00
2019-01-12T16:01:39.163Z,13.00
2019-01-12T16:04:05.792Z,12.90
2019-01-12T16:06:32.295Z,13.00
2019-01-12T16:08:58.873Z,12.90
2019-01-12T16:11:25.385Z,13.00
2019-01-12T16:13:51.915Z,12.90
2019-01-12T16:16:18.636Z,12.90
2019-01-12T16:18:46.516Z,13.00
2019-01-12T16:21:13.289Z,12.90
2019-01-12T16:23:39.927Z,13.00
2019-01-12T16:26:06.353Z,13.10
2019-01-12T16:28:32.871Z,13.00
2019-01-12T16:30:59.408Z,13.20
2019-01-12T16:33:25.863Z,12.90
2019-01-12T16:35:52.476Z,12.80
2019-01-12T16:38:19.014Z,12.70
2019-01-12T16:40:45.574Z,12.80
2019-01-12T16:43:12.284Z,12.70
2019-01-12T16:45:38.850Z,12.70
2019-01-12T16:48:05.317Z,12.70
2019-01-12T16:50:31.892Z,12.80
2019-01-12T16:52:58.564Z,12.80
2019-01-12T16:55:25.197Z,13.30
2019-01-12T16:57:51.724Z,13.40
2019-01-12T17:00:18.678Z,14.50
2019-01-12T17:02:45.190Z,14.90
2019-01-12T17:05:11.827Z,14.50
2019-01-12T17:07:38.386Z,14.80
2019-01-12T17:10:05.025Z,16.50
2019-01-12T17:12:31.527Z,16.20
2019-01-12T17:14:58.095Z,16.80
2019-01-12T17:17:24.735Z,17.20
2019-01-12T17:19:51.244Z,16.20
2019-01-12T17:22:18.010Z,16.90
2019-01-12T17:24:44.516Z,16.90
2019-01-12T17:27:11.156Z,16.50
2019-01-12T17:29:37.687Z,16.60
2019-01-12T17:32:04.353Z,16.60
2019-01-12T17:34:30.863Z,16.60
2019-01-12T17:36:58.957Z,15.10
2019-01-12T17:39:25.577Z,15.50
2019-01-12T17:41:52.109Z,15.50
2019-01-12T17:44:18.646Z,15.50
2019-01-12T17:46:45.207Z,15.60
2019-01-12T17:49:11.843Z,14.90
2019-01-12T17:51:38.378Z,15.20
2019-01-12T17:54:04.888Z,14.60
2019-01-12T17:56:31.428Z,14.50
2019-01-12T17:58:57.965Z,16.20
2019-01-12T18:01:24.503Z,16.60
2019-01-12T18:03:51.060Z,17.40
2019-01-12T18:06:17.569Z,17.60
2019-01-12T18:08:44.131Z,16.90
2019-01-12T18:11:10.771Z,16.40
2019-01-12T18:13:37.405Z,16.00
2019-01-12T18:16:04.050Z,17.20
2019-01-12T18:18:30.681Z,17.30
2019-01-12T18:20:57.604Z,17.80
2019-01-12T18:23:24.164Z,18.10
2019-01-12T18:25:50.800Z,17.50
2019-01-12T18:28:17.310Z,17.50
2019-01-12T18:30:43.844Z,17.80
2019-01-12T18:33:10.511Z,17.30
2019-01-12T18:35:37.022Z,17.30
2019-01-12T18:38:03.556Z,16.70
2019-01-12T18:40:30.218Z,16.00
2019-01-12T18:42:56.858Z,16.10
2019-01-12T18:45:23.368Z,16.10
2019-01-12T18:47:49.928Z,16.40
2019-01-12T18:50:16.371Z,16.00
2019-01-12T18:52:42.873Z,16.00
2019-01-12T18:55:09.412Z,16.20
2019-01-12T18:57:35.946Z,16.00
2019-01-12T19:00:02.501Z,15.80
2019-01-12T19:02:29.010Z,16.10
2019-01-12T19:04:55.549Z,15.70
2019-01-12T19:07:22.086Z,15.70
2019-01-12T19:09:48.604Z,15.50
2019-01-12T19:12:15.290Z,16.40
2019-01-12T19:14:41.922Z,16.20
2019-01-12T19:17:08.636Z,16.60
2019-01-12T19:19:35.173Z,16.70
2019-01-12T19:22:01.629Z,16.90
2019-01-12T19:24:28.269Z,17.00
2019-01-12T19:26:54.776Z,16.90
2019-01-12T19:29:21.310Z,17.10
2019-01-12T19:31:47.976Z,16.70
2019-01-12T19:34:14.620Z,16.90
2019-01-12T19:36:41.125Z,16.70
2019-01-12T19:39:07.662Z,16.40
2019-01-12T19:41:34.198Z,16.60
2019-01-12T19:44:00.728Z,16.40
2019-01-12T19:46:27.397Z,16.30
2019-01-12T19:48:54.038Z,15.70
2019-01-12T19:51:20.539Z,16.20
2019-01-12T19:53:47.486Z,16.20
2019-01-12T19:56:25.210Z,15.70
2019-01-12T19:58:47.552Z,15.30
2019-01-12T20:01:14.188Z,15.70
2019-01-12T20:03:40.698Z,15.70
2019-01-12T20:06:07.232Z,15.20
2019-01-12T20:08:33.897Z,15.50
2019-01-12T20:11:00.533Z,15.00
2019-01-12T20:13:27.178Z,15.00
2019-01-12T20:15:53.786Z,15.10
2019-01-12T20:18:20.450Z,15.10
2019-01-12T20:20:47.028Z,14.80
2019-01-12T20:23:13.695Z,14.80
2019-01-12T20:25:40.516Z,14.80
2019-01-12T20:28:07.077Z,15.20
2019-01-12T20:30:33.614Z,14.60
2019-01-12T20:33:00.147Z,14.60
2019-01-12T20:35:26.685Z,14.50
2019-01-12T20:37:53.753Z,14.70
2019-01-12T20:40:20.260Z,14.80
2019-01-12T20:42:46.794Z,14.90
2019-01-12T20:45:13.432Z,15.30
2019-01-12T20:47:40.103Z,14.60
2019-01-12T20:50:06.607Z,15.10
2019-01-12T20:52:33.171Z,15.00
2019-01-12T20:54:59.684Z,15.30
2019-01-12T20:57:26.244Z,15.20
2019-01-12T20:59:52.754Z,14.90
2019-01-12T21:02:19.316Z,15.30
2019-01-12T21:04:46.164Z,14.90
2019-01-12T21:07:12.666Z,15.50
2019-01-12T21:09:39.199Z,14.90
2019-01-12T21:12:05.865Z,15.20
2019-01-12T21:14:32.476Z,15.30
2019-01-12T21:16:59.017Z,15.20
2019-01-12T21:19:25.548Z,14.80
2019-01-12T21:21:52.083Z,15.20
2019-01-12T21:24:18.619Z,15.10
2019-01-12T21:26:45.283Z,15.10
2019-01-12T21:29:11.922Z,14.40
2019-01-12T21:31:38.437Z,14.10
2019-01-12T21:34:04.977Z,14.60
2019-01-12T21:36:31.629Z,15.10
2019-01-12T21:38:58.146Z,14.90
2019-01-12T21:41:24.701Z,14.70
2019-01-12T21:43:51.212Z,14.90
2019-01-12T21:46:17.745Z,15.00
2019-01-12T21:48:44.280Z,15.10
2019-01-12T21:51:10.922Z,15.00
2019-01-12T21:53:37.453Z,15.00
2019-01-12T21:56:03.915Z,14.80
2019-01-12T21:58:30.423Z,14.90
2019-01-12T22:00:56.985Z,14.70
2019-01-12T22:03:23.493Z,14.80
2019-01-12T22:05:50.057Z,14.80
2019-01-12T22:08:16.567Z,14.70
2019-01-12T22:10:44.613Z,14.80
2019-01-12T22:13:11.610Z,14.60
2019-01-12T22:15:38.053Z,14.50
2019-01-12T22:18:04.683Z,14.10
2019-01-12T22:20:31.192Z,14.30
2019-01-12T22:22:57.724Z,13.80
2019-01-12T22:25:24.388Z,13.60
2019-01-12T22:27:51.027Z,13.60
2019-01-12T22:30:17.675Z,13.60
2019-01-12T22:32:44.303Z,13.50
2019-01-12T22:35:10.917Z,13.50
2019-01-12T22:37:37.579Z,13.40
2019-01-12T22:40:04.089Z,13.50
2019-01-12T22:42:30.651Z,13.50
2019-01-12T22:44:57.288Z,13.90
2019-01-12T22:47:23.929Z,13.60
2019-01-12T22:49:51.408Z,13.40
2019-01-12T22:52:17.996Z,13.40
2019-01-12T22:54:44.528Z,13.60
2019-01-12T22:57:11.182Z,13.40
2019-01-12T22:59:37.722Z,13.60
2019-01-12T23:02:04.236Z,13.50
2019-01-12T23:04:30.803Z,13.80
2019-01-12T23:06:57.436Z,13.40
2019-01-12T23:09:23.947Z,13.50
2019-01-12T23:11:50.481Z,13.70
2019-01-12T23:14:16.925Z,13.80
2019-01-12T23:16:43.582Z,14.30
2019-01-12T23:19:10.197Z,14.10
2019-01-12T23:21:36.858Z,14.00
2019-01-12T23:24:03.329Z,13.80
2019-01-12T23:26:29.903Z,14.20
2019-01-12T23:28:56.354Z,14.20
2019-01-12T23:31:22.999Z,14.10
2019-01-12T23:33:49.637Z,14.30
2019-01-12T23:36:16.144Z,14.10
2019-01-12T23:38:42.687Z,14.00
2019-01-12T23:41:09.315Z,14.40
2019-01-12T23:43:35.851Z,14.40
2019-01-12T23:46:02.417Z,13.90
2019-01-12T23:48:28.929Z,14.40
2019-01-12T23:50:55.460Z,13.90
2019-01-12T23:53:21.999Z,14.20
2019-01-12T23:55:48.948Z,13.80
2019-01-12T23:58:15.478Z,14.00
